createdAt,value
2019-02-15T00:01:52.010Z,9.35
2019-02-15T00:04:21.622Z,9.15
2019-02-15T00:06:51.341Z,9.00
2019-02-15T00:09:20.958Z,8.83
2019-02-15T00:11:50.650Z,8.53
2019-02-15T00:14:20.350Z,9.80
2019-02-15T00:16:49.992Z,8.85
2019-02-15T00:19:38.309Z,8.73
2019-02-15T00:22:08.050Z,8.80
2019-02-15T00:24:37.731Z,8.53
2019-02-15T00:27:07.473Z,8.58
2019-02-15T00:29:37.267Z,8.35
2019-02-15T00:32:06.887Z,8.08
2019-02-15T00:34:36.582Z,8.35
2019-02-15T00:37:06.316Z,7.75
2019-02-15T00:39:35.998Z,8.23
2019-02-15T00:42:05.640Z,8.10
2019-02-15T00:44:35.231Z,7.58
2019-02-15T00:47:23.791Z,7.83
2019-02-15T00:50:04.681Z,8.20
2019-02-15T00:52:53.140Z,7.40
2019-02-15T00:55:47.818Z,7.58
2019-02-15T00:58:42.170Z,7.55
2019-02-15T01:01:30.757Z,7.67
2019-02-15T01:04:22.659Z,7.42
2019-02-15T01:07:01.940Z,7.37
2019-02-15T01:09:53.014Z,7.58
2019-02-15T01:12:34.218Z,7.22
2019-02-15T01:15:04.108Z,7.05
2019-02-15T01:17:33.843Z,6.92
2019-02-15T01:20:03.530Z,7.17
2019-02-15T01:22:33.160Z,8.00
2019-02-15T01:25:02.844Z,7.30
2019-02-15T01:27:43.108Z,7.15
2019-02-15T01:30:31.758Z,7.03
2019-02-15T01:33:26.165Z,7.28
2019-02-15T01:36:14.570Z,7.10
2019-02-15T01:39:01.759Z,6.80
2019-02-15T01:41:48.162Z,6.78
2019-02-15T01:44:24.156Z,6.72
2019-02-15T01:47:06.907Z,7.03
2019-02-15T01:49:36.455Z,6.45
2019-02-15T01:52:06.116Z,6.33
2019-02-15T01:54:35.828Z,6.75
2019-02-15T01:57:05.532Z,6.50
2019-02-15T01:59:35.338Z,6.08
2019-02-15T02:02:05.064Z,6.20
2019-02-15T02:04:34.772Z,6.40
2019-02-15T02:07:04.401Z,6.55
2019-02-15T02:09:34.087Z,6.22
2019-02-15T02:12:04.200Z,6.58
2019-02-15T02:14:33.928Z,6.35
2019-02-15T02:17:03.668Z,6.12
2019-02-15T02:19:33.241Z,6.30
2019-02-15T02:22:02.921Z,6.05
2019-02-15T02:24:32.762Z,6.30
2019-02-15T02:27:02.516Z,6.45
2019-02-15T02:29:32.181Z,6.12
2019-02-15T02:32:01.827Z,5.58
2019-02-15T02:34:31.499Z,5.47
2019-02-15T02:37:01.262Z,6.03
2019-02-15T02:39:30.922Z,6.17
2019-02-15T02:42:00.610Z,5.67
2019-02-15T02:44:30.546Z,5.83
2019-02-15T02:47:00.412Z,6.35
2019-02-15T02:49:30.069Z,5.95
2019-02-15T02:51:59.824Z,5.67
2019-02-15T02:54:29.430Z,5.45
2019-02-15T02:56:59.133Z,5.62
2019-02-15T02:59:28.832Z,5.83
2019-02-15T03:01:58.529Z,5.75
2019-02-15T03:04:28.269Z,5.65
2019-02-15T03:06:58.047Z,5.80
2019-02-15T03:09:27.740Z,5.78
2019-02-15T03:11:57.367Z,5.53
2019-02-15T03:14:27.085Z,5.72
2019-02-15T03:16:56.827Z,5.30
2019-02-15T03:19:26.512Z,5.47
2019-02-15T03:21:56.132Z,5.47
2019-02-15T03:24:25.839Z,5.70
2019-02-15T03:26:55.564Z,5.10
2019-02-15T03:29:25.298Z,5.15
2019-02-15T03:31:54.885Z,5.47
2019-02-15T03:34:24.627Z,5.60
2019-02-15T03:37:10.388Z,5.22
2019-02-15T03:39:51.754Z,5.12
2019-02-15T03:42:21.626Z,4.80
2019-02-15T03:44:51.411Z,5.70
2019-02-15T03:47:24.449Z,5.33
2019-02-15T03:49:54.159Z,5.08
2019-02-15T03:52:23.964Z,5.05
2019-02-15T03:54:53.682Z,5.22
2019-02-15T03:57:23.309Z,4.92
2019-02-15T03:59:53.016Z,5.25
2019-02-15T04:02:22.764Z,4.67
2019-02-15T04:04:52.490Z,4.97
2019-02-15T04:07:22.243Z,4.72
2019-02-15T04:09:51.885Z,4.62
2019-02-15T04:12:21.570Z,4.60
2019-02-15T04:14:51.203Z,4.97
2019-02-15T04:17:20.897Z,4.85
2019-02-15T04:19:50.590Z,4.58
2019-02-15T04:22:20.378Z,5.33
2019-02-15T04:24:50.113Z,4.30
2019-02-15T04:27:19.839Z,4.42
2019-02-15T04:29:49.574Z,4.65
2019-02-15T04:32:19.171Z,4.60
2019-02-15T04:34:48.758Z,4.67
2019-02-15T04:37:18.453Z,4.65
2019-02-15T04:39:48.177Z,4.62
2019-02-15T04:42:17.960Z,4.53
2019-02-15T04:44:48.551Z,4.40
2019-02-15T04:47:18.334Z,4.53
2019-02-15T04:49:47.967Z,4.50
2019-02-15T04:52:17.698Z,4.28
2019-02-15T04:54:47.514Z,4.33
2019-02-15T04:57:17.758Z,4.28
2019-02-15T04:59:47.537Z,4.47
2019-02-15T05:02:17.159Z,4.22
2019-02-15T05:04:46.830Z,4.60
2019-02-15T05:07:16.430Z,4.17
2019-02-15T05:09:46.415Z,4.22
2019-02-15T05:12:17.365Z,4.40
2019-02-15T05:14:53.185Z,4.37
2019-02-15T05:17:18.566Z,4.40
2019-02-15T05:19:48.168Z,4.40
2019-02-15T05:22:17.938Z,5.28
2019-02-15T05:24:47.518Z,5.00
2019-02-15T05:27:17.203Z,4.80
2019-02-15T05:29:46.940Z,4.87
2019-02-15T05:32:18.313Z,4.97
2019-02-15T05:34:48.089Z,5.47
2019-02-15T05:37:17.795Z,5.83
2019-02-15T05:39:47.598Z,5.90
2019-02-15T05:42:17.221Z,5.97
2019-02-15T05:44:46.912Z,6.00
2019-02-15T05:47:16.655Z,6.10
2019-02-15T05:49:46.329Z,5.75
2019-02-15T05:52:15.978Z,6.22
2019-02-15T05:54:45.754Z,5.70
2019-02-15T05:57:15.389Z,6.47
2019-02-15T05:59:45.133Z,5.92
2019-02-15T06:02:14.809Z,6.55
2019-02-15T06:04:44.621Z,5.67
2019-02-15T06:07:14.326Z,5.65
2019-02-15T06:09:44.012Z,6.05
2019-02-15T06:12:13.730Z,6.15
2019-02-15T06:14:43.480Z,6.15
2019-02-15T06:17:13.156Z,6.12
2019-02-15T06:19:42.774Z,5.20
2019-02-15T06:22:12.575Z,6.03
2019-02-15T06:24:42.190Z,6.60
2019-02-15T06:27:11.990Z,6.30
2019-02-15T06:29:41.638Z,6.15
2019-02-15T06:32:11.323Z,6.08
2019-02-15T06:34:40.945Z,6.50
2019-02-15T06:37:10.650Z,5.20
2019-02-15T06:39:40.257Z,5.65
2019-02-15T06:42:09.760Z,5.70
2019-02-15T06:44:39.455Z,5.20
2019-02-15T06:47:09.064Z,5.45
2019-02-15T06:49:39.101Z,5.35
2019-02-15T06:52:08.774Z,5.70
2019-02-15T06:54:38.605Z,5.08
2019-02-15T06:57:08.308Z,5.33
2019-02-15T06:59:51.746Z,5.08
2019-02-15T07:02:49.280Z,5.25
2019-02-15T07:05:26.781Z,5.25
2019-02-15T07:07:56.622Z,4.87
2019-02-15T07:10:26.260Z,4.50
2019-02-15T07:12:55.948Z,5.22
2019-02-15T07:15:33.407Z,5.20
2019-02-15T07:17:56.932Z,4.78
2019-02-15T07:20:26.646Z,4.28
2019-02-15T07:22:56.316Z,4.47
2019-02-15T07:25:25.961Z,4.72
2019-02-15T07:27:55.643Z,4.70
2019-02-15T07:30:25.223Z,4.78
2019-02-15T07:32:54.646Z,4.53
2019-02-15T07:35:24.566Z,4.60
2019-02-15T07:37:54.245Z,4.62
2019-02-15T07:40:24.139Z,5.10
2019-02-15T07:42:53.801Z,4.55
2019-02-15T07:45:23.596Z,4.37
2019-02-15T07:47:53.254Z,4.80
2019-02-15T07:50:22.949Z,4.60
2019-02-15T07:52:52.777Z,4.10
2019-02-15T07:55:22.382Z,4.45
2019-02-15T07:57:52.189Z,5.00
2019-02-15T08:00:21.792Z,4.67
2019-02-15T08:02:51.625Z,4.62
2019-02-15T08:05:23.318Z,4.28
2019-02-15T08:07:52.543Z,4.40
2019-02-15T08:10:22.201Z,4.83
2019-02-15T08:12:51.861Z,4.33
2019-02-15T08:15:21.641Z,4.45
2019-02-15T08:17:51.403Z,4.30
2019-02-15T08:20:21.143Z,4.60
2019-02-15T08:22:50.819Z,4.42
2019-02-15T08:25:21.450Z,4.12
2019-02-15T08:27:51.179Z,4.30
2019-02-15T08:30:22.159Z,9.30
2019-02-15T08:32:51.913Z,7.40
2019-02-15T08:35:21.557Z,5.20
2019-02-15T08:37:51.344Z,5.92
2019-02-15T08:40:21.076Z,5.33
2019-02-15T08:42:50.761Z,5.50
2019-02-15T08:45:20.418Z,6.20
2019-02-15T08:47:50.077Z,5.75
2019-02-15T08:50:19.814Z,5.40
2019-02-15T08:52:49.494Z,5.70
2019-02-15T08:55:19.237Z,5.75
2019-02-15T08:57:48.839Z,5.72
2019-02-15T09:00:18.629Z,5.10
2019-02-15T09:02:48.509Z,5.53
2019-02-15T09:05:18.244Z,5.12
2019-02-15T09:07:47.913Z,5.58
2019-02-15T09:10:17.580Z,5.50
2019-02-15T09:12:47.302Z,5.47
2019-02-15T09:15:19.207Z,5.00
2019-02-15T09:17:48.954Z,5.70
2019-02-15T09:20:18.693Z,5.30
2019-02-15T09:22:48.383Z,5.37
2019-02-15T09:25:18.149Z,5.45
2019-02-15T09:28:15.671Z,5.20
2019-02-15T09:30:49.036Z,4.83
2019-02-15T09:33:18.857Z,5.00
2019-02-15T09:35:48.537Z,4.47
2019-02-15T09:38:18.292Z,4.80
2019-02-15T09:40:48.066Z,5.00
2019-02-15T09:43:17.919Z,4.70
2019-02-15T09:45:47.543Z,4.40
2019-02-15T09:48:17.335Z,4.65
2019-02-15T09:50:46.954Z,4.25
2019-02-15T09:53:16.760Z,4.47
2019-02-15T09:55:46.442Z,4.33
2019-02-15T09:58:16.604Z,4.45
2019-02-15T10:00:46.407Z,4.20
2019-02-15T10:03:16.201Z,4.50
2019-02-15T10:05:45.947Z,4.58
2019-02-15T10:08:15.630Z,4.20
2019-02-15T10:10:45.457Z,4.00
2019-02-15T10:13:15.159Z,3.98
2019-02-15T10:15:44.976Z,3.92
2019-02-15T10:18:14.735Z,4.22
2019-02-15T10:20:44.324Z,4.03
2019-02-15T10:23:14.001Z,3.98
2019-02-15T10:25:43.663Z,3.70
2019-02-15T10:28:13.311Z,3.87
2019-02-15T10:30:43.147Z,4.40
2019-02-15T10:33:12.953Z,3.35
2019-02-15T10:35:42.675Z,3.52
2019-02-15T10:38:12.402Z,3.52
2019-02-15T10:40:42.136Z,3.50
2019-02-15T10:43:11.709Z,3.77
2019-02-15T10:45:41.404Z,3.55
2019-02-15T10:48:11.138Z,3.45
2019-02-15T10:50:40.769Z,3.65
2019-02-15T10:53:11.077Z,3.05
2019-02-15T10:55:40.777Z,3.33
2019-02-15T10:58:10.466Z,3.00
2019-02-15T11:00:40.179Z,3.22
2019-02-15T11:03:09.849Z,3.10
2019-02-15T11:05:39.522Z,3.17
2019-02-15T11:08:09.131Z,3.45
2019-02-15T11:10:38.934Z,3.22
2019-02-15T11:13:08.555Z,3.08
2019-02-15T11:15:38.253Z,3.10
2019-02-15T11:18:08.188Z,3.17
2019-02-15T11:20:37.872Z,3.10
2019-02-15T11:23:07.505Z,3.67
2019-02-15T11:25:37.193Z,3.20
2019-02-15T11:28:06.935Z,3.00
2019-02-15T11:30:36.739Z,2.87
2019-02-15T11:33:06.475Z,2.85
2019-02-15T11:35:36.375Z,2.85
2019-02-15T11:38:05.972Z,2.77
2019-02-15T11:40:35.863Z,3.10
2019-02-15T11:43:05.680Z,2.92
2019-02-15T11:45:35.380Z,2.95
2019-02-15T11:48:05.120Z,2.60
2019-02-15T11:50:34.883Z,2.77
2019-02-15T11:53:04.640Z,2.75
2019-02-15T11:55:34.505Z,2.65
2019-02-15T11:58:04.378Z,2.87
2019-02-15T12:00:34.785Z,2.60
2019-02-15T12:03:04.524Z,2.92
2019-02-15T12:05:34.338Z,2.65
2019-02-15T12:08:04.083Z,2.35
2019-02-15T12:10:33.975Z,2.98
2019-02-15T12:13:03.601Z,2.50
2019-02-15T12:15:33.598Z,2.50
2019-02-15T12:18:03.314Z,2.58
2019-02-15T12:20:32.973Z,2.60
2019-02-15T12:23:02.646Z,2.58
2019-02-15T12:25:32.304Z,2.37
2019-02-15T12:28:01.937Z,2.20
2019-02-15T12:30:31.617Z,2.50
2019-02-15T12:33:01.244Z,2.65
2019-02-15T12:35:30.948Z,2.42
2019-02-15T12:38:00.731Z,2.45
2019-02-15T12:40:30.454Z,2.40
2019-02-15T12:43:00.166Z,2.70
2019-02-15T12:45:29.883Z,2.25
2019-02-15T12:47:59.589Z,2.17
2019-02-15T12:50:29.218Z,2.05
2019-02-15T12:52:58.906Z,2.60
2019-02-15T12:55:28.571Z,2.35
2019-02-15T12:57:58.308Z,2.58
2019-02-15T13:00:27.958Z,2.33
2019-02-15T13:02:57.651Z,2.75
2019-02-15T13:05:27.281Z,2.10
2019-02-15T13:07:56.982Z,2.25
2019-02-15T13:10:28.223Z,2.33
2019-02-15T13:12:57.884Z,2.05
2019-02-15T13:15:27.570Z,2.40
2019-02-15T13:17:57.259Z,2.40
2019-02-15T13:20:26.964Z,2.50
2019-02-15T13:22:56.579Z,2.35
2019-02-15T13:25:26.369Z,2.05
2019-02-15T13:27:55.999Z,2.60
2019-02-15T13:30:25.764Z,2.33
2019-02-15T13:32:55.482Z,2.20
2019-02-15T13:35:25.216Z,2.40
2019-02-15T13:37:54.964Z,2.15
2019-02-15T13:40:24.684Z,2.17
2019-02-15T13:42:54.482Z,2.02
2019-02-15T13:45:24.168Z,2.15
2019-02-15T13:47:53.931Z,2.08
2019-02-15T13:50:23.613Z,2.05
2019-02-15T13:52:53.443Z,2.00
2019-02-15T13:55:23.042Z,2.15
2019-02-15T13:57:52.714Z,2.20
2019-02-15T14:00:22.392Z,2.08
2019-02-15T14:02:52.259Z,2.15
2019-02-15T14:05:21.865Z,2.20
2019-02-15T14:07:51.569Z,1.90
2019-02-15T14:10:21.200Z,2.00
2019-02-15T14:12:50.929Z,1.80
2019-02-15T14:15:20.603Z,2.00
2019-02-15T14:17:50.301Z,2.12
2019-02-15T14:20:20.024Z,1.90
2019-02-15T14:22:49.755Z,1.95
2019-02-15T14:25:19.447Z,1.98
2019-02-15T14:27:49.162Z,1.92
2019-02-15T14:30:18.875Z,2.10
2019-02-15T14:32:48.495Z,1.82
2019-02-15T14:35:18.279Z,2.20
2019-02-15T14:37:48.016Z,1.72
2019-02-15T14:40:17.705Z,2.00
2019-02-15T14:42:49.296Z,2.00
2019-02-15T14:45:18.974Z,1.70
2019-02-15T14:47:55.094Z,2.20
2019-02-15T14:50:20.132Z,1.80
2019-02-15T14:52:49.857Z,1.62
2019-02-15T14:55:19.766Z,1.77
2019-02-15T14:57:49.391Z,1.90
2019-02-15T15:00:19.112Z,1.52
2019-02-15T15:02:48.810Z,1.65
2019-02-15T15:05:18.459Z,1.90
2019-02-15T15:07:48.309Z,1.87
2019-02-15T15:10:17.940Z,1.80
2019-02-15T15:12:47.662Z,2.00
2019-02-15T15:15:17.473Z,1.87
2019-02-15T15:17:47.264Z,2.02
2019-02-15T15:20:16.878Z,1.90
2019-02-15T15:22:46.608Z,1.90
2019-02-15T15:25:16.311Z,2.00
2019-02-15T15:27:46.100Z,1.60
2019-02-15T15:30:15.792Z,1.70
2019-02-15T15:32:45.530Z,1.90
2019-02-15T15:35:15.267Z,1.85
2019-02-15T15:37:44.952Z,1.82
2019-02-15T15:40:14.804Z,1.82
2019-02-15T15:42:44.566Z,1.65
2019-02-15T15:45:14.202Z,1.80
2019-02-15T15:47:43.887Z,1.80
2019-02-15T15:50:13.606Z,1.62
2019-02-15T15:52:43.325Z,1.92
2019-02-15T15:55:13.162Z,1.70
2019-02-15T15:57:42.840Z,1.70
2019-02-15T16:00:12.929Z,1.77
2019-02-15T16:02:42.666Z,2.00
2019-02-15T16:05:12.311Z,1.90
2019-02-15T16:07:43.660Z,1.40
2019-02-15T16:10:13.472Z,1.60
2019-02-15T16:12:43.315Z,1.62
2019-02-15T16:15:13.005Z,1.92
2019-02-15T16:17:42.692Z,1.92
2019-02-15T16:20:12.481Z,1.70
2019-02-15T16:22:42.147Z,1.42
2019-02-15T16:25:11.988Z,1.52
2019-02-15T16:27:43.513Z,1.70
2019-02-15T16:30:13.294Z,2.10
2019-02-15T16:32:43.092Z,2.40
2019-02-15T16:35:12.844Z,1.77
2019-02-15T16:37:42.516Z,2.12
2019-02-15T16:40:12.963Z,2.08
2019-02-15T16:42:42.658Z,2.00
2019-02-15T16:45:13.686Z,2.20
2019-02-15T16:47:43.513Z,1.87
2019-02-15T16:50:13.135Z,2.12
2019-02-15T16:52:42.753Z,2.10
2019-02-15T16:55:13.445Z,2.02
2019-02-15T16:57:43.371Z,2.10
2019-02-15T17:00:13.179Z,2.02
2019-02-15T17:02:42.800Z,1.82
2019-02-15T17:05:13.149Z,2.00
2019-02-15T17:07:42.830Z,2.35
2019-02-15T17:10:12.561Z,1.92
2019-02-15T17:12:42.308Z,2.08
2019-02-15T17:15:12.322Z,2.20
2019-02-15T17:17:41.982Z,2.17
2019-02-15T17:20:11.706Z,2.08
2019-02-15T17:22:41.396Z,2.35
2019-02-15T17:25:11.115Z,2.40
2019-02-15T17:27:40.745Z,2.37
2019-02-15T17:30:10.654Z,2.00
2019-02-15T17:32:40.317Z,2.47
2019-02-15T17:35:10.292Z,2.90
2019-02-15T17:37:39.901Z,2.37
2019-02-15T17:40:10.754Z,2.50
2019-02-15T17:42:40.527Z,2.72
2019-02-15T17:45:10.685Z,2.08
2019-02-15T17:47:40.295Z,2.47
2019-02-15T17:50:09.942Z,2.70
2019-02-15T17:52:39.680Z,2.25
2019-02-15T17:55:09.263Z,2.75
2019-02-15T17:57:38.895Z,2.37
2019-02-15T18:00:09.471Z,2.67
2019-02-15T18:02:39.272Z,2.62
2019-02-15T18:05:16.584Z,2.62
2019-02-15T18:07:47.401Z,2.30
2019-02-15T18:10:17.160Z,2.20
2019-02-15T18:12:46.987Z,2.33
2019-02-15T18:15:16.635Z,2.67
2019-02-15T18:17:46.270Z,2.50
2019-02-15T18:20:15.859Z,2.10
2019-02-15T18:22:45.572Z,2.30
2019-02-15T18:25:15.380Z,2.30
2019-02-15T18:27:44.975Z,2.20
2019-02-15T18:30:14.969Z,2.27
2019-02-15T18:32:44.639Z,2.45
2019-02-15T18:35:14.528Z,2.30
2019-02-15T18:37:44.230Z,2.40
2019-02-15T18:40:13.924Z,2.17
2019-02-15T18:42:43.550Z,2.30
2019-02-15T18:45:13.772Z,2.30
2019-02-15T18:47:43.375Z,2.27
2019-02-15T18:50:13.169Z,2.33
2019-02-15T18:52:42.801Z,2.02
2019-02-15T18:55:12.557Z,2.02
2019-02-15T18:57:42.323Z,2.75
2019-02-15T19:00:13.985Z,1.98
2019-02-15T19:02:43.825Z,2.08
2019-02-15T19:05:14.288Z,2.42
2019-02-15T19:07:44.122Z,2.40
2019-02-15T19:10:15.998Z,2.05
2019-02-15T19:12:45.686Z,1.92
2019-02-15T19:15:15.877Z,2.42
2019-02-15T19:17:45.631Z,2.50
2019-02-15T19:20:15.235Z,2.50
2019-02-15T19:22:44.878Z,2.50
2019-02-15T19:25:14.818Z,2.05
2019-02-15T19:27:44.366Z,2.25
2019-02-15T19:30:19.145Z,2.47
2019-02-15T19:32:48.812Z,2.20
2019-02-15T19:35:18.454Z,2.25
2019-02-15T19:37:48.227Z,2.00
2019-02-15T19:40:17.924Z,2.45
2019-02-15T19:42:49.081Z,2.40
2019-02-15T19:45:18.826Z,2.37
2019-02-15T19:47:48.434Z,2.22
2019-02-15T19:50:18.306Z,2.58
2019-02-15T19:52:49.097Z,2.30
2019-02-15T19:55:18.759Z,2.20
2019-02-15T19:57:48.471Z,2.40
2019-02-15T20:00:18.982Z,2.45
2019-02-15T20:02:48.833Z,2.50
2019-02-15T20:05:18.518Z,2.12
2019-02-15T20:07:48.162Z,2.55
2019-02-15T20:10:19.306Z,2.50
2019-02-15T20:12:48.944Z,2.17
2019-02-15T20:15:18.761Z,2.47
2019-02-15T20:17:48.562Z,2.50
2019-02-15T20:20:18.217Z,2.50
2019-02-15T20:22:47.904Z,2.42
2019-02-15T20:25:17.741Z,2.20
2019-02-15T20:27:47.465Z,2.40
2019-02-15T20:30:18.460Z,2.55
2019-02-15T20:32:48.208Z,2.20
2019-02-15T20:35:17.841Z,2.80
2019-02-15T20:37:47.548Z,2.62
2019-02-15T20:40:17.163Z,2.65
2019-02-15T20:42:46.986Z,2.30
2019-02-15T20:45:18.446Z,2.50
2019-02-15T20:47:48.159Z,2.30
2019-02-15T20:50:18.201Z,2.58
2019-02-15T20:52:47.951Z,2.75
2019-02-15T20:55:17.565Z,2.20
2019-02-15T20:57:47.478Z,2.30
2019-02-15T21:00:19.270Z,2.67
2019-02-15T21:02:49.064Z,2.52
2019-02-15T21:05:18.850Z,2.22
2019-02-15T21:07:48.523Z,2.83
2019-02-15T21:10:18.174Z,2.62
2019-02-15T21:12:47.965Z,2.37
2019-02-15T21:15:17.570Z,2.80
2019-02-15T21:17:47.203Z,2.47
2019-02-15T21:20:16.942Z,2.70
2019-02-15T21:22:46.626Z,2.47
2019-02-15T21:25:16.372Z,2.60
2019-02-15T21:27:46.066Z,2.37
2019-02-15T21:30:16.005Z,2.77
2019-02-15T21:32:45.916Z,2.47
2019-02-15T21:35:15.498Z,2.98
2019-02-15T21:37:45.152Z,2.65
2019-02-15T21:40:15.580Z,2.85
2019-02-15T21:42:45.268Z,2.65
2019-02-15T21:45:14.987Z,3.10
2019-02-15T21:47:44.567Z,2.80
2019-02-15T21:50:17.418Z,2.83
2019-02-15T21:52:45.823Z,2.90
2019-02-15T21:55:15.528Z,2.50
2019-02-15T21:57:45.256Z,2.80
2019-02-15T22:00:16.898Z,2.52
2019-02-15T22:02:46.714Z,2.60
2019-02-15T22:05:16.572Z,2.55
2019-02-15T22:07:46.241Z,2.75
2019-02-15T22:10:15.957Z,2.77
2019-02-15T22:12:45.766Z,2.80
2019-02-15T22:15:15.408Z,2.42
2019-02-15T22:17:45.001Z,3.12
2019-02-15T22:20:14.791Z,2.17
2019-02-15T22:22:45.447Z,2.67
2019-02-15T22:25:15.087Z,2.60
2019-02-15T22:27:44.755Z,2.83
2019-02-15T22:30:14.916Z,2.30
2019-02-15T22:32:44.583Z,2.95
2019-02-15T22:35:14.539Z,2.60
2019-02-15T22:37:44.109Z,2.62
2019-02-15T22:40:39.106Z,2.55
2019-02-15T22:43:11.758Z,2.50
2019-02-15T22:45:41.497Z,2.40
2019-02-15T22:48:11.127Z,2.35
2019-02-15T22:50:40.860Z,2.42
2019-02-15T22:53:10.615Z,2.52
2019-02-15T22:55:40.333Z,2.60
2019-02-15T22:58:10.082Z,2.52
2019-02-15T23:00:50.320Z,2.70
2019-02-15T23:03:22.009Z,2.50
2019-02-15T23:05:51.671Z,2.75
2019-02-15T23:08:21.442Z,2.35
2019-02-15T23:10:50.997Z,2.65
2019-02-15T23:13:20.698Z,2.62
2019-02-15T23:15:50.548Z,2.22
2019-02-15T23:18:20.334Z,2.47
2019-02-15T23:20:49.931Z,2.60
2019-02-15T23:23:19.750Z,2.67
2019-02-15T23:25:49.483Z,2.52
2019-02-15T23:28:19.176Z,2.60
2019-02-15T23:30:48.912Z,2.72
2019-02-15T23:33:18.489Z,2.67
2019-02-15T23:35:48.197Z,2.70
2019-02-15T23:38:17.862Z,2.95
2019-02-15T23:40:47.515Z,2.65
2019-02-15T23:43:17.164Z,2.47
2019-02-15T23:45:46.853Z,2.33
2019-02-15T23:48:16.462Z,2.55
2019-02-15T23:50:54.430Z,2.77
2019-02-15T23:53:17.613Z,2.70
2019-02-15T23:55:47.328Z,2.62
2019-02-15T23:58:16.974Z,2.90
